Time;durP1;ratioP1;P1;durP2;ratioP2;P2;SDS_P1;SDS_P2;PMS_P1;PMS_P2;Temp;Humidity;BMP_temperature;BMP_pressure;BME280_temperature;BME280_humidity;BME280_pressure;Samples;Min_cycle;Max_cycle;Signal;HPM_P1;HPM_P2
2022/06/11 00:00:45;;;;;;;10.53;4.62;;;;;;;12.38;71.06;101820.95;1708283;83;21611;-88
2022/06/11 00:03:12;;;;;;;4.83;4.00;;;;;;;12.36;71.12;101820.00;1709035;83;21043;-87
2022/06/11 00:05:41;;;;;;;7.87;3.98;;;;;;;12.34;71.28;101818.16;1708978;83;21803;-87
2022/06/11 00:08:08;;;;;;;7.17;3.60;;;;;;;12.31;71.34;101808.38;1708178;83;21090;-86
2022/06/11 00:10:34;;;;;;;7.30;4.20;;;;;;;12.29;71.39;101810.06;1709075;83;21079;-86
2022/06/11 00:13:01;;;;;;;9.25;5.08;;;;;;;12.27;71.49;101810.44;1708654;83;21560;-86
2022/06/11 00:15:29;;;;;;;8.90;5.75;;;;;;;12.25;71.62;101805.53;1707147;83;21098;-87
2022/06/11 00:17:57;;;;;;;9.18;4.33;;;;;;;12.22;71.72;101806.77;1706394;83;21743;-86
2022/06/11 00:20:27;;;;;;;10.32;3.67;;;;;;;12.20;71.81;101808.02;1708045;83;21058;-87
2022/06/11 00:22:56;;;;;;;8.48;4.37;;;;;;;12.19;71.86;101807.53;1658036;84;21180;-87
2022/06/11 00:25:22;;;;;;;6.20;3.92;;;;;;;12.17;71.89;101806.59;1679095;84;21082;-87
2022/06/11 00:27:50;;;;;;;7.28;3.50;;;;;;;12.15;72.00;101807.39;1681625;83;21349;-86
2022/06/11 00:30:18;;;;;;;6.03;3.55;;;;;;;12.14;72.11;101808.22;1709106;83;21759;-86
2022/06/11 00:32:46;;;;;;;10.48;4.75;;;;;;;12.13;72.19;101801.16;1662121;83;21110;-85
2022/06/11 00:35:16;;;;;;;7.92;3.60;;;;;;;12.12;72.26;101804.62;1693497;83;21086;-87
2022/06/11 00:37:45;;;;;;;8.58;3.85;;;;;;;12.09;72.27;101796.19;1688940;84;21594;-86
2022/06/11 00:40:16;;;;;;;8.38;3.33;;;;;;;12.08;72.36;101798.34;1688190;84;21058;-85
2022/06/11 00:42:43;;;;;;;8.48;4.10;;;;;;;12.08;72.46;101794.38;1693344;84;21303;-86
2022/06/11 00:45:32;;;;;;;10.48;4.00;;;;;;;12.07;72.55;101796.56;1689317;83;21101;-86
2022/06/11 00:48:17;;;;;;;14.13;4.05;;;;;;;12.05;72.61;101795.61;1694104;84;21171;-87
2022/06/11 00:50:51;;;;;;;9.90;3.70;;;;;;;12.04;72.69;101799.08;1693776;83;21626;-86
2022/06/11 00:53:32;;;;;;;6.90;3.58;;;;;;;12.02;72.79;101793.73;1657604;85;21275;-85
2022/06/11 00:55:59;;;;;;;8.08;3.65;;;;;;;12.02;72.83;101798.12;1674518;85;21777;-85
2022/06/11 00:58:30;;;;;;;6.53;3.47;;;;;;;12.00;72.93;101798.06;1692330;83;21100;-87
2022/06/11 01:00:58;;;;;;;7.65;3.83;;;;;;;12.00;72.96;101798.50;1664616;85;21078;-85
2022/06/11 01:03:36;;;;;;;7.20;4.03;;;;;;;11.98;73.03;101798.44;1668286;85;21668;-86
2022/06/11 01:06:24;;;;;;;10.43;3.90;;;;;;;11.97;73.11;101791.34;1674270;85;21059;-86
2022/06/11 01:09:07;;;;;;;7.25;3.85;;;;;;;11.96;73.17;101792.21;1674062;85;21723;-86
2022/06/11 01:12:05;;;;;;;7.72;4.78;;;;;;;11.93;73.17;101796.05;1673736;84;21098;-86
2022/06/11 01:14:50;;;;;;;5.53;3.87;;;;;;;11.93;73.26;101792.52;1668525;85;21529;-87
2022/06/11 01:17:49;;;;;;;8.28;3.90;;;;;;;11.90;73.31;101794.64;1674413;85;21094;-87
2022/06/11 01:20:52;;;;;;;8.13;3.83;;;;;;;11.89;73.32;101795.86;1674239;85;21083;-89
2022/06/11 01:23:47;;;;;;;6.92;3.98;;;;;;;11.86;73.43;101796.63;1674362;85;21820;-89
2022/06/11 01:26:55;;;;;;;8.68;4.08;;;;;;;11.84;73.46;101797.91;1649080;86;21044;-89
2022/06/11 01:29:39;;;;;;;6.12;3.45;;;;;;;11.80;73.51;101797.30;1648216;86;21096;-90
2022/06/11 01:32:42;;;;;;;8.28;3.77;;;;;;;11.78;73.59;101803.37;1647930;86;21091;-90
2022/06/11 01:35:29;;;;;;;6.47;3.85;;;;;;;11.77;73.71;101805.52;1643379;85;21059;-88
2022/06/11 01:38:20;;;;;;;9.90;4.05;;;;;;;11.72;73.75;101798.77;1636088;87;21821;-87
2022/06/11 01:40:58;;;;;;;8.68;3.95;;;;;;;11.71;73.86;101798.70;1671123;85;21655;-87
2022/06/11 01:43:40;;;;;;;8.35;3.55;;;;;;;11.68;73.97;101801.70;1640463;85;21152;-88
2022/06/11 01:46:17;;;;;;;8.13;3.98;;;;;;;11.66;74.01;101800.76;1626671;86;21161;-88
2022/06/11 01:48:57;;;;;;;8.60;3.77;;;;;;;11.65;74.08;101800.27;1631952;86;21107;-89
2022/06/11 01:52:01;;;;;;;7.05;3.50;;;;;;;11.66;74.10;101806.46;1667583;85;22458;-88
2022/06/11 01:54:36;;;;;;;6.58;3.47;;;;;;;11.66;74.17;101808.67;1670415;85;21144;-87
2022/06/11 01:57:11;;;;;;;9.88;3.87;;;;;;;11.66;74.21;101806.03;1649911;86;21154;-86
2022/06/11 01:59:45;;;;;;;6.65;3.65;;;;;;;11.64;74.23;101806.39;1649164;86;22522;-87
2022/06/11 02:02:42;;;;;;;7.70;3.62;;;;;;;11.64;74.32;101811.67;1650142;85;21115;-87
2022/06/11 02:05:39;;;;;;;7.37;3.60;;;;;;;11.63;74.30;101810.29;1685197;84;21723;-87
2022/06/11 02:08:30;;;;;;;9.58;3.50;;;;;;;11.63;74.37;101811.17;1700625;83;21067;-87
2022/06/11 02:11:07;;;;;;;8.83;3.52;;;;;;;11.64;74.42;101824.86;1691112;84;21020;-87
2022/06/11 02:14:08;;;;;;;9.98;3.62;;;;;;;11.65;74.45;101821.36;1701310;83;21107;-86
2022/06/11 02:17:10;;;;;;;;;;;;;;;;;;;;;
2022/06/11 02:19:36;;;;;;;6.55;3.52;;;;;;;11.70;74.52;101820.23;1679244;84;21664;-87
2022/06/11 02:22:08;;;;;;;10.80;3.62;;;;;;;11.69;74.59;101830.29;1682815;84;21062;-85
2022/06/11 02:24:39;;;;;;;7.60;3.30;;;;;;;11.73;74.57;101837.91;1701279;84;21822;-87
2022/06/11 02:27:14;;;;;;;8.70;3.40;;;;;;;11.74;74.63;101832.69;1701665;84;21067;-87
2022/06/11 02:29:41;;;;;;;6.53;3.20;;;;;;;11.78;74.64;101837.23;1701681;83;21094;-87
2022/06/11 02:32:13;;;;;;;8.70;4.15;;;;;;;11.81;74.63;101832.09;1688401;83;21861;-87
2022/06/11 02:34:52;;;;;;;9.58;3.33;;;;;;;11.85;74.63;101839.70;1693195;83;21075;-86
2022/06/11 02:37:33;;;;;;;10.40;3.75;;;;;;;11.87;74.64;101832.30;1679326;84;21153;-85
2022/06/11 02:40:18;;;;;;;6.22;2.77;;;;;;;11.94;74.63;101840.50;1688472;82;21145;-87
2022/06/11 02:42:45;;;;;;;7.80;3.47;;;;;;;11.99;74.65;101841.15;1684868;84;21050;-85
2022/06/11 02:45:13;;;;;;;10.13;3.40;;;;;;;12.05;74.56;101847.96;1689001;83;21767;-87
2022/06/11 02:47:40;;;;;;;8.30;3.15;;;;;;;12.11;74.54;101852.56;1702640;83;21051;-85
2022/06/11 02:50:08;;;;;;;9.08;3.30;;;;;;;12.19;74.52;101854.16;1685673;83;21093;-87
2022/06/11 02:52:39;;;;;;;10.98;3.30;;;;;;;12.23;74.43;101852.98;1688376;83;21097;-87
2022/06/11 02:55:06;;;;;;;8.68;3.37;;;;;;;12.30;74.41;101859.40;1688847;83;21086;-87
2022/06/11 02:57:33;;;;;;;8.08;3.50;;;;;;;12.38;74.34;101855.70;1689024;83;21738;-89
2022/06/11 03:00:00;;;;;;;7.37;3.30;;;;;;;12.44;74.32;101856.84;1689072;83;21627;-89
2022/06/11 03:02:32;;;;;;;9.90;3.25;;;;;;;12.53;74.25;101852.70;1671489;83;21046;-87
2022/06/11 03:05:00;;;;;;;7.70;2.60;;;;;;;12.62;74.22;101860.52;1688737;84;21126;-89
2022/06/11 03:07:26;;;;;;;7.08;3.00;;;;;;;12.73;74.14;101864.86;1685095;84;21098;-86
2022/06/11 03:09:53;;;;;;;7.40;2.80;;;;;;;12.81;73.97;101865.11;1686744;84;21809;-85
2022/06/11 03:12:20;;;;;;;11.63;3.83;;;;;;;12.90;73.88;101863.21;1688566;84;21070;-86
2022/06/11 03:14:47;;;;;;;6.87;2.95;;;;;;;13.01;73.86;101861.82;1680439;84;21591;-87
2022/06/11 03:17:16;;;;;;;13.22;3.30;;;;;;;13.13;73.76;101859.99;1692157;83;21085;-86
2022/06/11 03:19:43;;;;;;;8.48;2.95;;;;;;;13.23;73.62;101859.42;1684489;84;21087;-85
2022/06/11 03:22:10;;;;;;;9.03;2.80;;;;;;;13.36;73.54;101859.02;1688308;84;21768;-85
2022/06/11 03:24:38;;;;;;;6.50;2.77;;;;;;;13.56;73.47;101856.09;1687912;83;21080;-87
2022/06/11 03:27:06;;;;;;;9.80;3.17;;;;;;;13.84;73.89;101860.45;1685366;83;21066;-88
2022/06/11 03:29:33;;;;;;;5.83;2.42;;;;;;;15.05;75.73;101860.61;1679734;84;21066;-85
2022/06/11 03:31:59;;;;;;;7.67;2.90;;;;;;;16.44;74.67;101854.80;1684668;84;21101;-87
2022/06/11 03:34:26;;;;;;;9.78;2.67;;;;;;;18.00;73.58;101862.12;1684857;84;21714;-87
2022/06/11 03:36:53;;;;;;;7.70;2.17;;;;;;;18.62;69.76;101863.67;1679766;84;21090;-87
2022/06/11 03:39:21;;;;;;;11.40;2.75;;;;;;;18.27;67.41;101865.97;1632199;87;21045;-84
2022/06/11 03:41:48;;;;;;;11.60;2.90;;;;;;;17.78;66.74;101860.91;1623305;87;21184;-87
2022/06/11 03:44:15;;;;;;;7.20;2.47;;;;;;;17.55;66.86;101861.02;1659897;86;21072;-85
2022/06/11 03:46:41;;;;;;;5.20;2.50;;;;;;;17.56;66.72;101861.05;1667532;84;22613;-85
2022/06/11 03:49:08;;;;;;;7.22;2.60;;;;;;;17.73;66.92;101856.40;1687569;84;21058;-87
2022/06/11 03:51:35;;;;;;;6.12;2.52;;;;;;;18.72;67.97;101861.09;1687983;83;21105;-87
2022/06/11 03:54:03;;;;;;;7.62;2.30;;;;;;;20.52;68.20;101856.31;1685868;84;21130;-87
2022/06/11 03:56:29;;;;;;;7.22;2.27;;;;;;;22.57;66.27;101861.66;1680875;84;21086;-88
2022/06/11 03:58:56;;;;;;;9.55;2.33;;;;;;;24.41;64.07;101860.15;1683659;83;21763;-85
2022/06/11 04:01:23;;;;;;;5.37;1.92;;;;;;;25.90;61.25;101863.36;1680705;84;21059;-88
2022/06/11 04:03:53;;;;;;;7.45;2.08;;;;;;;27.04;59.11;101861.63;1677383;84;21093;-86
2022/06/11 04:06:25;;;;;;;6.70;2.25;;;;;;;28.19;57.29;101864.74;1683116;84;21058;-88
2022/06/11 04:08:52;;;;;;;5.12;2.02;;;;;;;29.35;55.17;101855.94;1682253;84;21132;-88
2022/06/11 04:11:26;;;;;;;6.53;1.85;;;;;;;30.36;53.39;101862.58;1682871;84;21748;-86
2022/06/11 04:13:53;;;;;;;5.45;2.30;;;;;;;31.28;51.41;101850.53;1682168;84;21556;-85
2022/06/11 04:16:28;;;;;;;5.50;2.12;;;;;;;32.02;49.86;101861.25;1680672;83;21088;-90
2022/06/11 04:18:57;;;;;;;5.08;2.10;;;;;;;32.84;48.07;101860.42;1679756;84;21502;-85
2022/06/11 04:21:24;;;;;;;6.42;2.27;;;;;;;33.34;46.39;101858.78;1682209;83;21145;-86
2022/06/11 04:23:52;;;;;;;4.85;2.05;;;;;;;33.89;44.62;101863.09;1679466;83;21744;-86
2022/06/11 04:26:24;;;;;;;5.28;2.15;;;;;;;34.11;43.49;101858.67;1676308;83;21125;-86
2022/06/11 04:28:51;;;;;;;6.80;2.10;;;;;;;34.46;42.33;101859.87;1681537;84;21674;-86
2022/06/11 04:31:17;;;;;;;6.72;2.17;;;;;;;34.85;41.38;101855.28;1678663;84;21590;-86
2022/06/11 04:33:47;;;;;;;8.38;2.10;;;;;;;35.42;40.29;101853.22;1681319;83;21129;-86
2022/06/11 04:36:17;;;;;;;7.47;2.05;;;;;;;35.95;39.30;101860.37;1700658;83;21792;-86
2022/06/11 04:38:44;;;;;;;7.58;2.20;;;;;;;36.42;38.68;101850.03;1687265;83;21560;-91
2022/06/11 04:41:10;;;;;;;7.72;2.10;;;;;;;36.70;37.02;101849.58;1675780;83;21623;-90
2022/06/11 04:43:39;;;;;;;3.70;1.90;;;;;;;36.75;36.13;101843.25;1692874;83;21147;-88
2022/06/11 04:46:06;;;;;;;6.45;2.22;;;;;;;37.09;35.92;101850.52;1699718;83;21125;-86
2022/06/11 04:48:33;;;;;;;5.30;1.92;;;;;;;37.46;35.03;101850.69;1705915;83;23103;-89
2022/06/11 04:51:01;;;;;;;5.33;2.00;;;;;;;37.73;34.13;101853.36;1695655;83;21576;-86
2022/06/11 04:53:27;;;;;;;5.60;2.27;;;;;;;37.97;33.64;101858.89;1700179;83;21082;-86
2022/06/11 04:55:56;;;;;;;4.62;2.00;;;;;;;38.47;33.03;101862.50;1705711;83;21204;-85
2022/06/11 04:58:23;;;;;;;5.78;2.08;;;;;;;38.93;32.43;101858.13;1699142;83;21216;-87
2022/06/11 05:00:50;;;;;;;6.67;2.17;;;;;;;39.29;31.65;101861.75;1704385;83;23172;-85
2022/06/11 05:03:22;;;;;;;5.25;1.70;;;;;;;39.47;31.10;101852.53;1697906;83;21133;-85
2022/06/11 05:05:50;;;;;;;5.80;2.00;;;;;;;39.58;30.54;101857.17;1701917;83;21093;-89
2022/06/11 05:08:26;;;;;;;4.20;2.00;;;;;;;39.74;30.31;101861.83;1678198;83;21153;-91
2022/06/11 05:10:53;;;;;;;7.05;2.33;;;;;;;40.25;30.18;101857.66;1702450;83;21094;-86
2022/06/11 05:13:20;;;;;;;4.55;2.10;;;;;;;40.83;29.51;101859.25;1700474;83;22958;-87
2022/06/11 05:15:51;;;;;;;4.37;1.90;;;;;;;41.18;28.70;101854.30;1683778;83;21142;-87
2022/06/11 05:18:18;;;;;;;5.90;2.05;;;;;;;41.46;28.06;101854.63;1700580;83;21035;-91
2022/06/11 05:20:45;;;;;;;5.33;2.10;;;;;;;41.48;27.33;101856.73;1697091;83;21078;-84
2022/06/11 05:23:12;;;;;;;7.40;2.22;;;;;;;41.46;27.02;101854.63;1695413;83;21129;-85
2022/06/11 05:25:42;;;;;;;9.00;2.77;;;;;;;41.50;27.05;101860.75;1703111;83;21795;-91
2022/06/11 05:28:09;;;;;;;6.35;2.25;;;;;;;41.69;26.43;101857.23;1707741;83;21141;-86
2022/06/11 05:30:37;;;;;;;7.67;1.95;;;;;;;41.65;26.15;101860.78;1695482;83;21106;-87
2022/06/11 05:33:06;;;;;;;6.40;1.98;;;;;;;41.59;25.65;101862.69;1684211;83;21082;-84
2022/06/11 05:35:33;;;;;;;5.03;2.47;;;;;;;41.35;25.54;101866.66;1701891;83;21083;-85
2022/06/11 05:38:04;;;;;;;7.42;2.30;;;;;;;41.33;25.28;101870.55;1633110;85;21807;-85
2022/06/11 05:40:35;;;;;;;8.23;2.45;;;;;;;41.09;24.97;101868.92;1666836;85;21074;-84
2022/06/11 05:43:02;;;;;;;6.17;2.35;;;;;;;39.26;24.15;101873.87;1662504;85;21051;-84
2022/06/11 05:45:45;;;;;;;5.22;2.08;;;;;;;36.48;24.73;101869.31;1672473;85;21041;-84
2022/06/11 05:48:12;;;;;;;10.40;3.33;;;;;;;34.15;25.85;101870.31;1669154;85;21816;-84
2022/06/11 05:50:42;;;;;;;6.67;2.67;;;;;;;31.95;26.81;101876.53;1684814;84;21774;-84
2022/06/11 05:53:09;;;;;;;6.15;2.17;;;;;;;30.45;28.05;101876.27;1694761;84;21622;-84
2022/06/11 05:55:38;;;;;;;5.55;2.67;;;;;;;29.00;29.07;101877.48;1690442;83;21133;-86
2022/06/11 05:58:08;;;;;;;6.50;2.05;;;;;;;27.88;30.40;101881.41;1669881;85;21599;-86
2022/06/11 06:00:35;;;;;;;11.38;2.98;;;;;;;26.89;31.39;101888.58;1682841;84;21153;-86
2022/06/11 06:03:02;;;;;;;7.40;2.72;;;;;;;26.17;32.47;101891.13;1670181;84;21768;-86
2022/06/11 06:05:29;;;;;;;6.80;3.45;;;;;;;25.49;33.30;101886.22;1672702;84;21983;-83
2022/06/11 06:07:56;;;;;;;7.05;2.40;;;;;;;24.87;34.08;101894.47;1670678;85;21094;-86
2022/06/11 06:10:23;;;;;;;6.50;2.15;;;;;;;24.40;35.08;101896.95;1688973;84;21042;-83
2022/06/11 06:12:50;;;;;;;7.03;2.02;;;;;;;23.91;35.53;101899.38;1672076;85;21111;-83
2022/06/11 06:15:20;;;;;;;7.20;2.50;;;;;;;23.40;36.17;101893.19;1672693;85;21692;-84
2022/06/11 06:17:49;;;;;;;6.65;2.52;;;;;;;23.06;36.88;101896.20;1669265;85;21115;-84
2022/06/11 06:20:16;;;;;;;7.78;2.02;;;;;;;22.74;37.46;101895.08;1648368;85;21098;-84
2022/06/11 06:22:42;;;;;;;7.12;2.40;;;;;;;22.51;38.32;101890.77;1670732;85;21098;-85
2022/06/11 06:25:20;;;;;;;10.45;6.00;;;;;;;22.29;38.65;101896.70;1670953;85;36417;-85
2022/06/11 06:27:47;;;;;;;7.23;2.47;;;;;;;22.08;39.20;101890.97;1670664;85;22863;-86
2022/06/11 06:30:13;;;;;;;5.65;2.08;;;;;;;21.97;39.50;101893.69;1678067;85;21047;-87
2022/06/11 06:32:40;;;;;;;6.40;3.00;;;;;;;21.97;40.12;101886.09;1673887;85;21150;-87
2022/06/11 06:35:08;;;;;;;9.05;4.60;;;;;;;21.96;40.42;101891.00;1677505;84;21171;-85
2022/06/11 06:37:35;;;;;;;7.70;2.60;;;;;;;21.83;40.62;101887.05;1643844;85;21594;-87
2022/06/11 06:40:01;;;;;;;5.17;1.65;;;;;;;21.77;41.04;101887.05;1636010;86;21784;-84
2022/06/11 06:42:28;;;;;;;4.58;1.50;;;;;;;21.77;41.30;101884.36;1638018;87;21419;-84
2022/06/11 06:44:57;;;;;;;4.10;1.70;;;;;;;21.79;41.37;101884.36;1638886;87;21047;-87
2022/06/11 06:47:24;;;;;;;6.00;1.90;;;;;;;21.77;41.47;101883.48;1640285;86;21115;-85
2022/06/11 06:49:50;;;;;;;5.40;1.82;;;;;;;21.73;41.44;101891.98;1639246;87;21051;-85
2022/06/11 06:52:17;;;;;;;9.93;1.90;;;;;;;21.59;41.49;101887.13;1646419;86;21743;-84
2022/06/11 06:54:44;;;;;;;6.97;1.80;;;;;;;21.48;41.66;101884.47;1643147;86;21098;-85
2022/06/11 06:57:11;;;;;;;5.42;2.02;;;;;;;21.42;41.83;101889.35;1634870;87;21602;-84
2022/06/11 06:59:38;;;;;;;6.00;2.30;;;;;;;21.36;41.98;101885.36;1638594;87;21482;-84
2022/06/11 07:02:05;;;;;;;5.87;1.98;;;;;;;21.22;42.31;101867.95;1642260;86;21142;-87
2022/06/11 07:04:31;;;;;;;5.70;2.15;;;;;;;21.22;42.31;101867.95;1637819;86;21725;-85
2022/06/11 07:06:59;;;;;;;4.87;1.80;;;;;;;21.40;42.57;101885.79;1643562;86;21110;-87
2022/06/11 07:09:25;;;;;;;3.42;1.55;;;;;;;21.47;42.47;101883.58;1634430;86;21102;-84
2022/06/11 07:11:52;;;;;;;5.70;1.87;;;;;;;21.52;42.54;101881.77;1644930;86;21781;-86
2022/06/11 07:14:19;;;;;;;8.88;1.80;;;;;;;21.57;42.66;101875.07;1645855;86;21086;-85
2022/06/11 07:16:50;;;;;;;7.72;2.55;;;;;;;21.60;42.64;101879.06;1640519;86;21680;-86
2022/06/11 07:19:27;;;;;;;6.10;1.62;;;;;;;21.60;42.66;101880.86;1639993;87;21822;-84
2022/06/11 07:21:57;;;;;;;5.67;1.82;;;;;;;21.56;42.70;101859.88;1643429;86;21109;-87
2022/06/11 07:24:27;;;;;;;7.75;1.82;;;;;;;21.66;42.38;101871.45;1645779;87;21599;-87
2022/06/11 07:26:57;;;;;;;5.55;1.70;;;;;;;21.63;41.99;101875.05;1641850;87;21706;-84
2022/06/11 07:29:28;;;;;;;6.65;2.00;;;;;;;21.56;42.00;101875.95;1638454;87;22353;-87
2022/06/11 07:32:01;;;;;;;5.30;1.80;;;;;;;21.58;42.21;101877.29;1638076;86;21079;-87
2022/06/11 07:34:28;;;;;;;4.30;1.40;;;;;;;21.64;42.24;101868.80;1645230;86;21139;-87
2022/06/11 07:36:56;;;;;;;7.08;1.82;;;;;;;21.70;42.26;101869.23;1674047;83;21144;-84
2022/06/11 07:39:24;;;;;;;4.62;1.60;;;;;;;21.72;42.13;101872.34;1694451;83;21086;-87
2022/06/11 07:41:51;;;;;;;5.12;1.95;;;;;;;21.68;42.04;101869.23;1701154;83;21749;-86
2022/06/11 07:44:18;;;;;;;4.17;1.37;;;;;;;21.68;42.04;101869.23;1703531;83;21071;-84
2022/06/11 07:46:45;;;;;;;6.47;1.57;;;;;;;21.72;42.25;101864.30;1704350;83;21568;-86
2022/06/11 07:49:13;;;;;;;5.62;1.72;;;;;;;21.79;42.42;101873.22;1701252;83;21074;-85
2022/06/11 07:51:39;;;;;;;6.28;3.10;;;;;;;21.90;42.14;101878.52;1699699;83;21090;-85
2022/06/11 07:54:06;;;;;;;8.25;2.05;;;;;;;21.90;42.14;101878.52;1704980;83;22580;-85
2022/06/11 07:56:33;;;;;;;5.95;1.55;;;;;;;21.85;41.91;101880.34;1698155;83;21112;-86
2022/06/11 07:59:00;;;;;;;7.00;1.70;;;;;;;21.81;41.84;101879.89;1697890;83;21086;-87
2022/06/11 08:01:27;;;;;;;7.05;1.75;;;;;;;21.74;41.91;101864.30;1698124;83;21058;-84
2022/06/11 08:03:54;;;;;;;5.25;2.50;;;;;;;21.90;42.40;101878.52;1706261;83;21113;-87
2022/06/11 08:06:20;;;;;;;4.53;1.70;;;;;;;21.89;42.13;101872.73;1701090;83;21753;-87
2022/06/11 08:08:49;;;;;;;3.87;1.75;;;;;;;21.89;42.27;101866.03;1705208;83;21067;-87
2022/06/11 08:11:16;;;;;;;6.85;3.98;;;;;;;21.91;42.45;101862.89;1696782;83;21109;-84
2022/06/11 08:13:43;;;;;;;4.50;1.87;;;;;;;22.04;42.61;101875.80;1698466;83;21082;-86
2022/06/11 08:16:10;;;;;;;3.98;1.70;;;;;;;22.10;42.41;101878.44;1708422;83;21118;-84
2022/06/11 08:18:38;;;;;;;5.12;2.22;;;;;;;22.18;42.57;101876.59;1703876;83;21742;-84
2022/06/11 08:21:04;;;;;;;5.00;2.55;;;;;;;22.18;42.57;101876.59;1704263;83;21047;-84
2022/06/11 08:23:31;;;;;;;6.83;1.67;;;;;;;22.38;42.79;101868.94;1707598;83;21126;-85
2022/06/11 08:25:58;;;;;;;6.92;2.10;;;;;;;22.38;42.79;101868.94;1701591;83;21326;-86
2022/06/11 08:28:26;;;;;;;4.78;1.40;;;;;;;22.46;42.80;101876.48;1698493;83;21106;-84
2022/06/11 08:30:53;;;;;;;8.68;3.42;;;;;;;22.38;42.41;101848.36;1696197;83;21825;-85
2022/06/11 08:33:20;;;;;;;6.30;4.28;;;;;;;22.35;42.52;101853.73;1698068;83;21091;-85
2022/06/11 08:35:46;;;;;;;5.70;2.00;;;;;;;22.35;42.52;101853.73;1707939;83;21125;-87
2022/06/11 08:38:13;;;;;;;10.85;2.05;;;;;;;22.41;42.45;101853.72;1697276;83;22202;-85
2022/06/11 08:40:47;;;;;;;4.37;1.70;;;;;;;22.57;42.61;101857.63;1693034;84;21158;-84
2022/06/11 08:43:40;;;;;;;6.95;1.70;;;;;;;22.74;42.56;101867.78;1691144;83;23013;-84
2022/06/11 08:46:16;;;;;;;6.33;2.92;;;;;;;22.90;42.69;101862.73;1648130;84;21083;-85
2022/06/11 08:49:06;;;;;;;6.87;1.85;;;;;;;23.13;42.52;101865.70;1684849;84;21035;-87
2022/06/11 08:51:41;;;;;;;4.17;1.77;;;;;;;23.13;42.52;101865.70;1692835;84;21099;-87
2022/06/11 08:54:14;;;;;;;6.55;2.92;;;;;;;23.22;42.41;101871.45;1691053;84;21079;-86
2022/06/11 08:57:03;;;;;;;7.55;2.17;;;;;;;23.32;41.92;101865.53;1688539;84;21797;-87
2022/06/11 08:59:54;;;;;;;6.15;1.80;;;;;;;23.39;42.09;101872.62;1665315;84;21166;-87
2022/06/11 09:02:41;;;;;;;9.58;2.00;;;;;;;23.50;41.98;101868.02;1658439;85;21087;-83
2022/06/11 09:05:39;;;;;;;5.03;1.75;;;;;;;23.62;42.07;101866.98;1673250;85;21073;-87
2022/06/11 09:08:42;;;;;;;6.05;1.55;;;;;;;23.77;42.02;101869.48;1667808;85;21600;-90
2022/06/11 09:11:44;;;;;;;6.40;2.05;;;;;;;23.88;42.00;101868.52;1664688;85;21825;-86
2022/06/11 09:14:31;;;;;;;4.17;1.70;;;;;;;24.01;41.74;101865.64;1668868;85;21114;-83
2022/06/11 09:17:24;;;;;;;7.20;3.25;;;;;;;24.14;41.48;101862.33;1667766;85;22196;-84
2022/06/11 09:19:59;;;;;;;6.08;2.30;;;;;;;24.22;41.36;101856.84;1662934;85;21111;-90
2022/06/11 09:23:05;;;;;;;7.00;2.05;;;;;;;24.23;41.20;101860.86;1668177;84;21604;-88
2022/06/11 09:26:10;;;;;;;6.33;1.62;;;;;;;24.18;41.26;101861.38;1665805;85;21758;-90
2022/06/11 09:28:42;;;;;;;6.80;1.85;;;;;;;24.13;41.42;101860.53;1661159;85;21068;-86
2022/06/11 09:31:29;;;;;;;8.88;2.70;;;;;;;24.05;41.48;101863.33;1653573;85;21660;-83
2022/06/11 09:34:12;;;;;;;6.65;1.80;;;;;;;24.06;41.48;101853.45;1650377;85;21097;-83
2022/06/11 09:36:43;;;;;;;6.50;1.77;;;;;;;24.03;41.42;101844.98;1673922;83;21149;-85
2022/06/11 09:39:28;;;;;;;5.40;2.00;;;;;;;24.10;41.81;101855.66;1702776;83;22468;-84
2022/06/11 09:42:06;;;;;;;4.55;1.62;;;;;;;24.18;41.58;101851.08;1682995;83;21716;-84
2022/06/11 09:44:59;;;;;;;4.05;1.55;;;;;;;24.25;41.29;101847.36;1702956;83;21063;-83
2022/06/11 09:47:47;;;;;;;6.10;1.85;;;;;;;24.35;41.31;101843.64;1690944;83;21083;-83
2022/06/11 09:50:52;;;;;;;5.40;1.55;;;;;;;24.49;40.95;101843.41;1700440;83;21030;-86
2022/06/11 09:53:28;;;;;;;4.05;1.80;;;;;;;24.57;40.77;101837.51;1652015;84;21792;-84
2022/06/11 09:56:11;;;;;;;4.33;1.85;;;;;;;24.61;40.81;101832.97;1698613;83;21047;-84
2022/06/11 09:58:52;;;;;;;4.03;1.60;;;;;;;24.64;40.78;101832.47;1695414;83;21092;-84
2022/06/11 10:01:23;;;;;;;5.67;2.02;;;;;;;24.66;40.71;101835.10;1702258;83;21093;-84
2022/06/11 10:04:08;;;;;;;6.95;1.60;;;;;;;24.64;40.93;101831.12;1699669;83;21102;-84
2022/06/11 10:06:40;;;;;;;5.03;1.90;;;;;;;24.79;41.19;101827.72;1694863;83;21776;-86
2022/06/11 10:09:19;;;;;;;6.47;1.80;;;;;;;24.98;40.79;101824.23;1702559;83;21098;-86
2022/06/11 10:11:53;;;;;;;6.20;2.05;;;;;;;25.12;40.49;101822.66;1690602;83;21402;-84
2022/06/11 10:14:31;;;;;;;5.53;1.70;;;;;;;25.24;40.25;101825.61;1699595;83;21063;-83
2022/06/11 10:17:27;;;;;;;4.83;2.20;;;;;;;25.26;39.74;101824.65;1694778;83;22070;-84
2022/06/11 10:20:24;;;;;;;13.48;3.72;;;;;;;25.24;39.96;101822.91;1707809;83;21772;-85
2022/06/11 10:23:00;;;;;;;4.75;1.55;;;;;;;25.26;39.84;101816.56;1700754;83;21639;-85
2022/06/11 10:25:45;;;;;;;6.58;2.25;;;;;;;25.22;39.66;101808.96;1699203;83;21045;-89
2022/06/11 10:28:40;;;;;;;4.60;2.60;;;;;;;25.12;39.71;101806.02;1702569;83;21086;-84
2022/06/11 10:31:18;;;;;;;5.70;3.60;;;;;;;25.01;39.66;101798.14;1701811;83;21636;-84
2022/06/11 10:34:05;;;;;;;4.10;2.00;;;;;;;24.94;40.33;101789.73;1697281;83;22243;-86
2022/06/11 10:36:39;;;;;;;5.53;1.85;;;;;;;24.96;40.41;101790.63;1701486;83;21557;-84
2022/06/11 10:39:22;;;;;;;5.70;1.57;;;;;;;24.93;40.36;101789.79;1662984;85;21773;-88
2022/06/11 10:42:11;;;;;;;5.33;1.87;;;;;;;24.84;40.53;101785.45;1662849;85;21080;-90
2022/06/11 10:44:45;;;;;;;8.23;2.10;;;;;;;24.86;40.16;101790.34;1661843;84;21421;-88
2022/06/11 10:47:22;;;;;;;9.13;2.52;;;;;;;24.80;40.16;101789.12;1659862;84;21783;-91
2022/06/11 10:50:08;;;;;;;15.98;5.35;;;;;;;24.73;40.17;101793.70;1664234;85;21079;-87
2022/06/11 10:53:03;;;;;;;4.20;1.85;;;;;;;24.70;40.33;101794.22;1657502;84;21082;-91
2022/06/11 10:55:46;;;;;;;5.70;1.80;;;;;;;24.72;40.26;101793.73;1660210;85;22056;-84
2022/06/11 10:58:41;;;;;;;10.77;2.93;;;;;;;24.72;40.07;101791.03;1665095;85;21067;-91
2022/06/11 11:01:25;;;;;;;7.37;2.37;;;;;;;24.70;40.33;101783.45;1629274;85;21254;-86
2022/06/11 11:04:15;;;;;;;3.05;1.70;;;;;;;24.77;40.43;101786.47;1668865;85;21635;-83
2022/06/11 11:06:42;;;;;;;5.70;2.20;;;;;;;24.87;40.51;101780.45;1668997;84;21027;-84
2022/06/11 11:09:21;;;;;;;7.08;1.87;;;;;;;24.91;40.21;101779.47;1642147;86;21750;-84
2022/06/11 11:11:55;;;;;;;4.12;1.70;;;;;;;24.94;40.29;101783.00;1646872;86;21154;-89
2022/06/11 11:14:37;;;;;;;6.00;2.17;;;;;;;25.02;40.43;101778.84;1651122;86;21740;-86
2022/06/11 11:17:07;;;;;;;7.08;2.00;;;;;;;25.14;40.57;101780.41;1675475;84;21060;-85
2022/06/11 11:20:29;;;;;;;6.72;2.83;;;;;;;25.29;40.49;101776.56;1674106;84;21051;-90
2022/06/11 11:22:19;;;;;;;2.80;1.57;;;;;;;25.40;40.27;101772.72;1664954;85;21110;-85
2022/06/11 11:24:50;;;;;;;5.10;2.27;;;;;;;25.52;40.02;101774.27;1665641;85;21090;-89
2022/06/11 11:27:30;;;;;;;4.22;2.67;;;;;;;25.60;39.50;101775.45;1670418;84;21767;-89
2022/06/11 11:30:03;;;;;;;3.17;1.50;;;;;;;25.66;39.16;101778.03;1664891;84;21183;-85
2022/06/11 11:32:37;;;;;;;4.87;1.95;;;;;;;25.76;38.90;101774.20;1659588;83;21094;-85
2022/06/11 11:35:29;;;;;;;10.90;6.75;;;;;;;25.89;38.70;101772.59;1667195;85;21140;-85
2022/06/11 11:38:00;;;;;;;5.25;2.20;;;;;;;26.05;38.62;101769.98;1670143;83;21382;-85
2022/06/11 11:40:32;;;;;;;4.28;2.10;;;;;;;26.18;38.53;101771.92;1679339;83;21815;-85
2022/06/11 11:43:10;;;;;;;4.25;1.72;;;;;;;26.25;38.04;101763.23;1671151;83;21082;-85
2022/06/11 11:45:58;;;;;;;7.80;2.35;;;;;;;26.21;37.64;101760.19;1683439;84;21596;-85
2022/06/11 11:48:39;;;;;;;5.50;2.27;;;;;;;26.19;37.48;101761.58;1678429;84;21158;-86
2022/06/11 11:51:09;;;;;;;4.00;1.40;;;;;;;26.34;37.41;101758.97;1683863;84;22188;-90
2022/06/11 11:53:43;;;;;;;2.45;1.07;;;;;;;26.66;37.28;101759.99;1683668;84;21754;-85
2022/06/11 11:56:45;;;;;;;5.45;3.52;;;;;;;26.90;36.88;101757.98;1681867;83;21109;-85
2022/06/11 11:59:49;;;;;;;4.85;1.87;;;;;;;27.16;36.30;101757.73;1682241;83;21133;-85